Ride Results

Lockhart Endurance Challenge (28-06-2014)
Ride distance: 80.0 km

Outcomes - Lockhart Endurance Challenge (28-06-2014)
Division No. of Entries Retired / DNE Completed Withdrawn Ineligible V/O Percentage Completed
HW 7 - 5 - - 2 71.43%
MW 16 - 12 1 - 3 75.00%
LW 10 - 9 - - 1 90.00%
JN 14 - 9 1 - 4 64.29%
Totals 47 - 35 2 - 10 74.47%
Results - Lockhart Endurance Challenge (28-06-2014)
No. Rider Horse Place Time Leg Speeds Total
Km/Hr
H/R bpm
Heavyweight
38 Tony Purton Beer Street Bewitched 1 (BC) 5:16:00 18.1, 13.0 15.19 36, 43, 46 (Avg:44)
65 Mark Green Scrap 2 6:28:00 14.9, 10.5 12.37 60, 46, 52 (Avg:49)
199 Dennis Foley Jnr Sienna Ekzotica 3 7:23:00 12.6, 9.4 10.84 34, 48, 60 (Avg:54)
254 Deb Wyllie Alhambra Trieste 4 7:35:00 11.3, 9.8 10.55 70, 48, 50 (Avg:49)
94 Natalie Humphries Cameo Arpeggio 5 7:46:00 10.6, 9.9 10.30 34, 45, 50 (Avg:47)
274 Jai Ingram Orion Lame L2 0:00:00 10.3, 9.9 - 49, 48, 57 (Avg:52)
137 John Shoobridge Tex Heart Rate L2 0:00:00 17.6, 13.2 - 34, 42, 62 (Avg:52)
Middleweight
179 Debbie Grull Lauralyn Notorious 1 (BC) 4:53:03 17.6, 15.2 16.38 37, 40, 43 (Avg:41)
136 Kaye Mitchell Beer Street Banshee 2 5:16:00 18.1, 13.0 15.19 38, 47, 52 (Avg:49)
79 Shannon Hill The Hobbit 3 5:20:00 17.6, 13.0 15.00 33, 47, 53 (Avg:50)
264 Ellie Maddick Davlyn Park Dekota 4 6:24:00 13.1, 11.8 12.50 33, 45, 50 (Avg:47)
219 Robert Crowe Tierview Salama 5 6:32:00 13.1, 11.4 12.24 40, 50, 52 (Avg:51)
78 Brad Hill Victoria Park Asafa 6 6:43:00 13.1, 10.9 11.91 26, 39, 42 (Avg:40)
113 Samantha Sward Lockleigh Park Just Jesting 6 6:43:00 13.1, 10.9 11.91 45, 47, 52 (Avg:49)
92 Blaine Astell Sandine Jerez 8 6:46:00 12.4, 11.2 11.82 33, 46, 53 (Avg:49)
143 Pauline Goodwin Marley Hosanna 9 7:01:00 14.2, 9.5 11.40 36, 53, 49 (Avg:51)
111 Royce Martin DVS Suni Bronson 10 7:05:00 12.2, 10.4 11.29 50, 42, 50 (Avg:46)
261 Danielle Taylor AAA Spotlight 11 7:46:00 10.6, 9.9 10.30 46, 46, 51 (Avg:48)
69 Tracey Wyllie River Oak Ricochet 12 27:03:00 1.7, 9.8 2.96 44, 44, 55 (Avg:49)
125 Brooke Brown-Cordell Alhambra Odessa Widthdrawn L2 0:00:00 - - 49, 44, 45 (Avg:44)
180 Nicole Ford Mindari Highly Explosive Heart Rate L2 0:00:00 11.3, 9.8 - 39, 50, 69 (Avg:59)
19 Sonia Hodgetts Kairo Heart Rate L2 0:00:00 19.1, 14.2 - 35, 48, 63 (Avg:55)
O Noel Lockhart Ralvon Splendour Lame L2 0:00:00 17.6, 13.0 - 31, 39, 47 (Avg:43)
Lightweight
42 Dianne Walsh Razorback Silver Wings 1 (BC) 5:17:00 17.6, 13.2 15.14 34, 46, 53 (Avg:49)
83 Angie Clark Cameo Bucephalus 2 6:16:00 14.2, 11.5 12.77 38, 45, 52 (Avg:48)
231 Andrew Matthews Shemali Saladin 3 6:32:00 13.1, 11.4 12.24 38, 44, 54 (Avg:49)
135 Breaana Smith Vandieman Tandaras Legacy 4 6:38:00 13.0, 11.2 12.06 32, 46, 45 (Avg:45)
150 Emily Shadbolt Tanbark Banjo 5 6:46:00 12.4, 11.2 11.82 37, 42, 46 (Avg:44)
100 Trish Smith Anglesea Piccolo 6 7:01:00 14.2, 9.5 11.40 39, 44, 49 (Avg:46)
272 Yuki Nishikido Highland View Chief 7 7:05:00 12.2, 10.4 11.29 32, 44, 48 (Avg:46)
203 Ellie Woodhouse River Oak Cayman 8 7:35:00 11.3, 9.8 10.55 39, 44, 59 (Avg:51)
90 Angela Hawks Razara Mystery Maker 9 7:46:00 10.6, 9.9 10.30 59, 45, 50 (Avg:47)
238 Felicia Ingram Castlebar Nabraska Lame L2 0:00:00 10.3, 9.9 - 36, 40, 48 (Avg:44)
Junior
288 David Anderson Jnr Glanheathyn Curio 1 4:42:00 17.3, 16.6 17.02 34, 47, 59 (Avg:53)
190 Alice Mitchell Beer Street Lizzy B 2 (BC) 4:53:02 18.1, 14.9 16.38 36, 43, 48 (Avg:45)
77 Brett Lockhart Lockleigh Park Lucky Martin 3 6:43:00 13.1, 10.9 11.91 35, 44, 48 (Avg:46)
186 Amelia Napier Tanbark Jasper 4 6:46:00 12.4, 11.2 11.82 65, 44, 46 (Avg:45)
249 Liam Davies Torryburn Sahbeel 5 7:23:00 12.6, 9.4 10.84 34, 43, 48 (Avg:45)
285 Bronte Page Kalody Park Impact 5 7:23:00 12.6, 9.4 10.84 39, 47, 56 (Avg:51)
286 Pyper Page Torryburn Spirit of Padron 5 7:23:00 12.6, 9.4 10.84 34, 48, 55 (Avg:51)
226 Hayley Marshall Rowallan Aspin 8 7:28:00 11.4, 10.0 10.71 36, 47, 49 (Avg:48)
105 Kirsty Sward Neilly Woodsong Zadonk 9 7:30:00 11.3, 10.0 10.67 39, 47, 54 (Avg:50)
106 Brittany Farrell Altarj Sir Jasper Lame L2 0:00:00 11.3, 10.0 - 39, 41, 46 (Avg:43)
209 Grace Huxtable Ausden Reflection Heart Rate L2 0:00:00 17.3, 16.6 - 38, 49, 72 (Avg:60)
154 Sarah Parker Vandieman Tassie Devil Lame L1 0:00:00 14.9 - 53, 48 (Avg:48)
74 Felicity Perry Mindari Highly Independent Widthdrawn L1 0:00:00 - - 35, 53 (Avg:53)
156 Bella Pickering Vandieman Trojen Lame L1 0:00:00 11.3 - 33, 48 (Avg:48)